Time;durP1;ratioP1;P1;durP2;ratioP2;P2;SDS_P1;SDS_P2;PMS_P1;PMS_P2;Temp;Humidity;BMP_temperature;BMP_pressure;BME280_temperature;BME280_humidity;BME280_pressure;Samples;Min_cycle;Max_cycle;Signal;HPM_P1;HPM_P2
2022/05/22 00:01:11;;;;;;;18.02;4.22;;;12.50;99.90;;;;;;5053375;28;20083;-69
2022/05/22 00:03:36;;;;;;;15.85;4.13;;;12.50;99.90;;;;;;5053395;28;20100;-71
2022/05/22 00:06:02;;;;;;;16.77;5.28;;;12.50;99.90;;;;;;5035136;28;20024;-71
2022/05/22 00:08:28;;;;;;;14.98;4.35;;;12.50;99.90;;;;;;5053139;28;20092;-70
2022/05/22 00:10:53;;;;;;;17.90;4.75;;;12.50;99.90;;;;;;5053230;28;20470;-70
2022/05/22 00:13:19;;;;;;;14.88;4.57;;;12.50;99.90;;;;;;5053294;28;20105;-70
2022/05/22 00:18:28;;;;;;;15.10;4.32;;;12.50;99.90;;;;;;5053115;28;20413;-71
2022/05/22 00:20:54;;;;;;;17.13;4.72;;;12.50;99.90;;;;;;5053710;28;20141;-70
2022/05/22 00:23:19;;;;;;;16.67;4.20;;;12.40;99.90;;;;;;5054775;28;20036;-70
2022/05/22 00:25:45;;;;;;;15.60;4.40;;;12.40;99.90;;;;;;5062785;28;20025;-70
2022/05/22 00:28:11;;;;;;;18.27;5.75;;;12.40;99.90;;;;;;5063769;28;20044;-69
2022/05/22 00:30:36;;;;;;;15.18;4.28;;;12.40;99.90;;;;;;5064494;28;20028;-69
2022/05/22 00:33:02;;;;;;;12.63;5.13;;;12.40;99.90;;;;;;5065640;28;20371;-69
2022/05/22 00:35:28;;;;;;;13.65;4.28;;;12.30;99.90;;;;;;5066767;28;20024;-69
2022/05/22 00:37:53;;;;;;;13.07;4.50;;;12.30;99.90;;;;;;5062869;28;20037;-69
2022/05/22 00:40:19;;;;;;;13.07;5.15;;;12.40;99.90;;;;;;5053811;28;20536;-70
2022/05/22 00:42:48;;;;;;;15.35;4.45;;;12.30;99.90;;;;;;5053711;28;20025;-70
2022/05/22 00:45:14;;;;;;;13.50;4.53;;;12.30;99.90;;;;;;5053947;28;20056;-69
2022/05/22 00:47:39;;;;;;;17.55;5.45;;;12.30;99.90;;;;;;5053068;28;20024;-70
2022/05/22 00:50:05;;;;;;;11.30;4.57;;;12.30;99.90;;;;;;5053307;28;20025;-70
2022/05/22 00:52:37;;;;;;;16.15;6.07;;;12.30;99.90;;;;;;5052910;28;20025;-71
2022/05/22 00:55:08;;;;;;;11.93;5.28;;;12.30;99.90;;;;;;5035410;28;20052;-70
2022/05/22 00:57:44;;;;;;;17.50;5.45;;;12.30;99.90;;;;;;5053244;28;20021;-69
2022/05/22 01:00:14;;;;;;;20.20;4.40;;;12.40;99.90;;;;;;5035162;28;20033;-69
2022/05/22 01:05:24;;;;;;;10.95;3.85;;;12.40;99.90;;;;;;5056694;28;20102;-69
2022/05/22 01:07:51;;;;;;;18.50;5.25;;;12.30;99.90;;;;;;5056965;28;20029;-69
2022/05/22 01:10:19;;;;;;;7.18;4.00;;;12.30;99.90;;;;;;5038470;28;20444;-70
2022/05/22 01:12:46;;;;;;;14.30;4.47;;;12.30;99.90;;;;;;5056586;28;20377;-70
2022/05/22 01:15:13;;;;;;;17.23;4.28;;;12.30;99.90;;;;;;5038336;28;20029;-69
2022/05/22 01:17:44;;;;;;;17.75;4.43;;;12.30;99.90;;;;;;5056042;28;20032;-70
2022/05/22 01:20:12;;;;;;;14.43;4.47;;;12.20;99.90;;;;;;5038194;28;20120;-69
2022/05/22 01:22:38;;;;;;;11.13;4.70;;;12.20;99.90;;;;;;5055918;28;20060;-69
2022/05/22 01:25:05;;;;;;;11.93;4.55;;;12.30;99.90;;;;;;5056024;28;20039;-71
2022/05/22 01:27:31;;;;;;;15.20;4.40;;;12.20;99.90;;;;;;5038339;28;20025;-69
2022/05/22 01:30:17;;;;;;;21.55;5.90;;;12.30;99.90;;;;;;5056178;28;20029;-69
2022/05/22 01:32:46;;;;;;;16.58;4.57;;;12.20;99.90;;;;;;5056878;28;20037;-70
2022/05/22 01:35:18;;;;;;;10.00;4.30;;;12.10;99.90;;;;;;5059531;28;20096;-69
2022/05/22 01:37:45;;;;;;;21.13;5.00;;;12.10;99.90;;;;;;5059169;28;20078;-69
2022/05/22 01:40:12;;;;;;;18.90;4.47;;;12.10;99.90;;;;;;5057450;28;20049;-69
2022/05/22 01:42:38;;;;;;;16.88;4.40;;;12.10;99.90;;;;;;5056127;28;20134;-69
2022/05/22 01:45:06;;;;;;;16.85;5.78;;;12.10;99.90;;;;;;5056577;28;20178;-69
2022/05/22 01:47:33;;;;;;;17.50;4.95;;;12.10;99.90;;;;;;5037841;28;20065;-69
2022/05/22 01:49:58;;;;;;;14.48;5.00;;;12.00;99.90;;;;;;5055621;28;20394;-69
2022/05/22 01:52:24;;;;;;;21.33;5.25;;;12.00;99.90;;;;;;5055326;28;20021;-69
2022/05/22 01:54:50;;;;;;;15.65;5.95;;;11.90;99.90;;;;;;5055789;28;20025;-70
2022/05/22 01:57:15;;;;;;;14.55;5.80;;;11.90;99.90;;;;;;5055874;28;20033;-70
2022/05/22 01:59:41;;;;;;;16.55;6.25;;;11.90;99.90;;;;;;5055312;28;20078;-70
2022/05/22 02:02:07;;;;;;;22.10;7.00;;;11.90;99.90;;;;;;5055518;28;20025;-70
2022/05/22 02:04:32;;;;;;;17.42;6.32;;;11.90;99.90;;;;;;5055413;28;20090;-70
2022/05/22 02:09:42;;;;;;;16.25;6.68;;;11.80;99.90;;;;;;5059512;28;20489;-70
2022/05/22 02:12:08;;;;;;;14.00;6.78;;;11.80;99.90;;;;;;5063246;28;20025;-69
2022/05/22 02:14:34;;;;;;;16.55;6.50;;;11.70;99.90;;;;;;5047244;28;20021;-70
2022/05/22 02:16:59;;;;;;;15.32;6.53;;;11.70;99.90;;;;;;5055987;28;20482;-69
2022/05/22 02:19:25;;;;;;;15.77;6.38;;;11.70;99.90;;;;;;5055239;28;20024;-69
2022/05/22 02:21:50;;;;;;;22.60;6.65;;;11.70;99.90;;;;;;5037126;28;20020;-70
2022/05/22 02:24:16;;;;;;;18.00;6.45;;;11.60;99.90;;;;;;5055488;28;20025;-69
2022/05/22 02:26:42;;;;;;;17.02;7.50;;;11.60;99.90;;;;;;5055217;28;20032;-70
2022/05/22 02:29:08;;;;;;;12.88;6.70;;;11.60;99.90;;;;;;5036442;28;20028;-69
2022/05/22 02:31:34;;;;;;;19.67;6.75;;;11.60;99.90;;;;;;5054831;28;20121;-70
2022/05/22 02:33:59;;;;;;;21.70;6.93;;;11.50;99.90;;;;;;5036625;28;20013;-70
2022/05/22 02:36:25;;;;;;;19.58;6.93;;;11.40;99.90;;;;;;5055202;28;20080;-69
2022/05/22 02:38:51;;;;;;;27.33;7.97;;;11.40;99.90;;;;;;5054590;28;20024;-70
2022/05/22 02:41:17;;;;;;;12.25;7.55;;;11.50;99.90;;;;;;5054635;28;20021;-69
2022/05/22 02:43:43;;;;;;;23.27;7.50;;;11.40;99.90;;;;;;5054220;28;20021;-72
2022/05/22 02:46:14;;;;;;;20.23;7.45;;;11.40;99.90;;;;;;5036218;28;20052;-70
2022/05/22 02:48:39;;;;;;;17.10;7.80;;;11.40;99.90;;;;;;5054109;28;20023;-69
2022/05/22 02:51:05;;;;;;;19.05;7.30;;;11.40;99.90;;;;;;5036177;28;20441;-70
2022/05/22 02:53:31;;;;;;;26.33;7.25;;;11.30;99.90;;;;;;5054109;28;20438;-69
2022/05/22 02:56:05;;;;;;;20.65;7.78;;;11.30;99.90;;;;;;5054001;28;20025;-70
2022/05/22 02:58:30;;;;;;;15.57;7.60;;;11.30;99.90;;;;;;5054231;28;20438;-69
2022/05/22 03:00:56;;;;;;;22.13;7.97;;;11.20;99.90;;;;;;5053888;28;20037;-70
2022/05/22 03:03:21;;;;;;;23.30;7.97;;;11.30;99.90;;;;;;5054523;28;20036;-71
2022/05/22 03:08:33;;;;;;;20.70;7.82;;;11.20;99.90;;;;;;5053818;28;20048;-70
2022/05/22 03:11:03;;;;;;;21.70;7.72;;;11.20;99.90;;;;;;5053905;28;20029;-70
2022/05/22 03:13:28;;;;;;;15.65;7.55;;;11.20;99.90;;;;;;5054016;28;20351;-71
2022/05/22 03:15:54;;;;;;;25.35;8.27;;;11.10;99.90;;;;;;5054096;28;20032;-70
2022/05/22 03:18:19;;;;;;;21.60;7.90;;;11.20;99.90;;;;;;5053877;28;20029;-70
2022/05/22 03:20:46;;;;;;;18.58;8.40;;;11.10;99.90;;;;;;5053765;28;20033;-70
2022/05/22 03:23:13;;;;;;;19.25;8.18;;;11.20;99.90;;;;;;5035780;28;20107;-70
2022/05/22 03:25:39;;;;;;;23.45;9.35;;;11.10;99.90;;;;;;5053752;28;20103;-70
2022/05/22 03:28:05;;;;;;;19.58;7.22;;;11.10;99.90;;;;;;5087777;22;20037;-76
2022/05/22 03:30:31;;;;;;;18.13;7.63;;;11.10;99.90;;;;;;5038703;28;20037;-77
2022/05/22 03:32:57;;;;;;;18.92;8.18;;;11.10;99.90;;;;;;5056211;28;20112;-76
2022/05/22 03:35:23;;;;;;;16.45;8.32;;;11.10;99.90;;;;;;5038547;28;20029;-76
2022/05/22 03:37:49;;;;;;;19.15;8.63;;;11.10;99.90;;;;;;5038226;28;20367;-77
2022/05/22 03:40:15;;;;;;;20.98;8.25;;;11.10;99.90;;;;;;5038550;28;20021;-76
2022/05/22 03:42:41;;;;;;;23.98;7.82;;;11.20;99.90;;;;;;5056723;28;20106;-76
2022/05/22 03:45:07;;;;;;;38.42;9.75;;;11.10;99.90;;;;;;5038420;28;20047;-77
2022/05/22 03:47:33;;;;;;;16.98;8.18;;;11.10;99.90;;;;;;5054500;28;20032;-77
2022/05/22 03:50:04;;;;;;;18.92;8.98;;;11.10;99.90;;;;;;5056059;28;20028;-77
2022/05/22 03:52:32;;;;;;;25.70;8.30;;;11.10;99.90;;;;;;5038003;28;20025;-77
2022/05/22 03:54:57;;;;;;;14.60;8.05;;;11.00;99.90;;;;;;5056231;28;20073;-77
2022/05/22 03:57:23;;;;;;;22.88;10.23;;;11.00;99.90;;;;;;5056406;28;20104;-77
2022/05/22 03:59:49;;;;;;;25.02;8.68;;;11.00;99.90;;;;;;5056466;28;20025;-77
2022/05/22 04:02:14;;;;;;;21.40;8.40;;;11.00;99.90;;;;;;5057263;28;20462;-77
2022/05/22 04:04:40;;;;;;;15.88;8.27;;;11.00;99.90;;;;;;5056252;28;20061;-77
2022/05/22 04:07:05;;;;;;;24.27;8.75;;;11.00;99.90;;;;;;5056307;28;20033;-77
2022/05/22 04:09:31;;;;;;;20.85;8.60;;;11.00;99.90;;;;;;5038360;28;20139;-77
2022/05/22 04:11:57;;;;;;;26.65;8.20;;;11.20;99.90;;;;;;5056890;28;20498;-77
2022/05/22 04:14:22;;;;;;;18.63;7.53;;;11.10;99.90;;;;;;5040948;28;20028;-77
2022/05/22 04:16:48;;;;;;;22.00;8.48;;;11.10;99.90;;;;;;5041327;28;20509;-77
2022/05/22 04:19:15;;;;;;;21.55;9.30;;;11.10;99.90;;;;;;5060037;28;20032;-77
2022/05/22 04:21:41;;;;;;;21.70;9.00;;;11.10;99.90;;;;;;5062001;28;20544;-77
2022/05/22 04:26:51;;;;;;;22.10;8.18;;;11.20;99.90;;;;;;5057791;28;20394;-77
2022/05/22 04:29:18;;;;;;;21.58;8.30;;;11.20;99.90;;;;;;5039767;28;20040;-77
2022/05/22 04:31:43;;;;;;;18.77;8.57;;;11.30;99.90;;;;;;5063679;28;20013;-76
2022/05/22 04:34:09;;;;;;;19.95;7.53;;;11.40;99.90;;;;;;5066770;28;20151;-77
2022/05/22 04:36:35;;;;;;;17.45;8.15;;;11.40;99.90;;;;;;5042197;28;20052;-78
2022/05/22 04:39:00;;;;;;;20.50;8.02;;;11.40;99.90;;;;;;5043428;28;20433;-77
2022/05/22 04:41:26;;;;;;;16.50;7.05;;;11.50;99.90;;;;;;5043876;28;20035;-77
2022/05/22 04:43:51;;;;;;;20.35;8.10;;;11.50;99.90;;;;;;5062468;28;20484;-78
2022/05/22 04:46:17;;;;;;;15.30;7.53;;;11.50;99.90;;;;;;5063031;28;20032;-77
2022/05/22 04:48:43;;;;;;;16.15;7.18;;;11.50;99.90;;;;;;5044262;28;20050;-77
2022/05/22 04:51:09;;;;;;;18.02;8.70;;;11.60;99.90;;;;;;5064289;28;20056;-78
2022/05/22 04:53:34;;;;;;;15.15;6.85;;;11.60;99.90;;;;;;5047194;28;20438;-77
2022/05/22 04:56:00;;;;;;;18.45;7.50;;;11.60;99.90;;;;;;5046359;28;20064;-77
2022/05/22 04:58:26;;;;;;;19.50;6.50;;;11.60;99.90;;;;;;5064216;28;20030;-77
2022/05/22 05:00:52;;;;;;;13.85;6.95;;;11.60;99.90;;;;;;5066957;28;20029;-77
2022/05/22 05:03:18;;;;;;;14.88;6.95;;;11.60;99.90;;;;;;5068473;28;20029;-77
2022/05/22 05:05:56;;;;;;;18.15;7.45;;;11.70;99.90;;;;;;5069236;28;20029;-77
2022/05/22 05:08:21;;;;;;;15.02;6.78;;;11.70;99.90;;;;;;5042340;28;20024;-77
2022/05/22 05:10:47;;;;;;;13.55;6.68;;;11.80;99.90;;;;;;5042824;28;20033;-77
2022/05/22 05:13:13;;;;;;;13.70;7.25;;;11.80;99.90;;;;;;5061296;28;20017;-78
2022/05/22 05:15:38;;;;;;;14.05;7.00;;;11.90;99.90;;;;;;5060688;28;20040;-77
2022/05/22 05:18:04;;;;;;;14.63;6.15;;;12.00;99.90;;;;;;5060018;28;20021;-77
2022/05/22 05:20:30;;;;;;;19.80;6.78;;;12.00;99.90;;;;;;5043059;28;20037;-77
2022/05/22 05:22:56;;;;;;;18.75;7.53;;;12.10;99.90;;;;;;5059339;28;20029;-77
2022/05/22 05:25:21;;;;;;;14.38;6.57;;;12.10;99.90;;;;;;5059791;28;20101;-77
2022/05/22 05:27:47;;;;;;;15.57;6.53;;;12.20;99.90;;;;;;5041356;28;20106;-77
2022/05/22 05:30:13;;;;;;;11.00;5.85;;;12.30;99.90;;;;;;5041628;28;20025;-76
2022/05/22 05:32:39;;;;;;;25.38;7.20;;;12.30;99.90;;;;;;5059415;28;20332;-77
2022/05/22 05:35:09;;;;;;;18.55;5.30;;;12.40;99.90;;;;;;5060166;28;20070;-77
2022/05/22 05:37:36;;;;;;;13.88;5.57;;;12.50;99.90;;;;;;5060825;28;20100;-77
2022/05/22 05:40:01;;;;;;;15.73;5.68;;;12.60;99.90;;;;;;5068348;28;20033;-76
2022/05/22 05:42:34;;;;;;;10.90;4.82;;;12.60;99.90;;;;;;5065687;28;20040;-77
2022/05/22 05:45:00;;;;;;;14.82;4.57;;;12.60;99.90;;;;;;5059575;28;20424;-77
2022/05/22 05:47:26;;;;;;;9.27;4.07;;;12.70;99.90;;;;;;5058324;28;20110;-76
2022/05/22 05:49:51;;;;;;;7.93;3.65;;;12.70;99.90;;;;;;5059701;28;20104;-77
2022/05/22 05:52:17;;;;;;;18.85;4.93;;;12.70;99.90;;;;;;5059862;28;20086;-76
2022/05/22 05:54:43;;;;;;;16.05;4.65;;;12.80;99.90;;;;;;5041544;28;20056;-77
2022/05/22 05:57:14;;;;;;;14.68;4.95;;;12.80;99.90;;;;;;5041941;28;20017;-76
2022/05/22 05:59:40;;;;;;;17.67;5.35;;;12.90;99.90;;;;;;5059300;28;20037;-75
2022/05/22 06:02:05;;;;;;;10.38;4.32;;;13.00;99.90;;;;;;5060066;28;20116;-76
2022/05/22 06:04:31;;;;;;;14.73;5.00;;;13.00;99.90;;;;;;5042674;28;20021;-77
2022/05/22 06:06:57;;;;;;;14.00;5.55;;;13.10;99.90;;;;;;5060159;28;20029;-76
2022/05/22 06:09:22;;;;;;;14.38;4.63;;;13.20;99.90;;;;;;5042943;28;20079;-76
2022/05/22 06:11:48;;;;;;;13.30;3.90;;;13.40;99.90;;;;;;5042730;28;20363;-76
2022/05/22 06:14:15;;;;;;;12.70;4.40;;;13.50;99.90;;;;;;5042976;28;20031;-76
2022/05/22 06:16:41;;;;;;;10.23;4.95;;;13.60;99.90;;;;;;5060689;28;20045;-76
2022/05/22 06:19:06;;;;;;;19.02;4.53;;;13.70;99.90;;;;;;5061847;28;20025;-76
2022/05/22 06:21:32;;;;;;;16.10;5.35;;;13.80;99.90;;;;;;5062491;28;20108;-76
2022/05/22 06:23:57;;;;;;;11.85;3.78;;;14.00;99.90;;;;;;5044101;28;20029;-76
2022/05/22 06:26:23;;;;;;;20.23;4.30;;;14.20;99.90;;;;;;5062428;28;20033;-77
2022/05/22 06:28:48;;;;;;;15.43;5.68;;;14.20;99.90;;;;;;5062310;28;20087;-76
2022/05/22 06:31:14;;;;;;;10.13;3.97;;;14.20;99.90;;;;;;5063240;28;20033;-76
2022/05/22 06:33:40;;;;;;;16.80;4.85;;;14.10;99.90;;;;;;5053274;28;20024;-76
2022/05/22 06:36:11;;;;;;;14.02;4.38;;;14.20;99.90;;;;;;5077224;28;20043;-77
2022/05/22 06:41:22;;;;;;;13.07;4.00;;;14.30;99.90;;;;;;5042490;28;20134;-77
2022/05/22 06:43:51;;;;;;;18.35;4.70;;;14.40;99.90;;;;;;5043278;28;20029;-77
2022/05/22 06:46:30;;;;;;;16.05;5.20;;;14.50;99.90;;;;;;5032205;28;20112;-77
2022/05/22 06:48:57;;;;;;;13.70;4.50;;;14.40;99.90;;;;;;5041821;28;20041;-77
2022/05/22 06:51:22;;;;;;;14.95;4.78;;;14.50;99.90;;;;;;5021823;28;20022;-77
2022/05/22 06:53:48;;;;;;;16.45;5.18;;;14.70;99.90;;;;;;5038256;28;20372;-76
2022/05/22 06:56:13;;;;;;;17.95;4.80;;;14.70;99.90;;;;;;5038844;28;20022;-77
2022/05/22 06:58:39;;;;;;;14.15;4.30;;;14.80;99.90;;;;;;5020689;28;20044;-76
2022/05/22 07:01:04;;;;;;;11.30;3.45;;;14.70;99.90;;;;;;5043586;28;20021;-76
2022/05/22 07:03:30;;;;;;;13.93;3.90;;;14.70;99.90;;;;;;5059972;28;20029;-76
2022/05/22 07:05:56;;;;;;;18.00;3.92;;;14.70;99.90;;;;;;5066643;28;20065;-76
2022/05/22 07:08:21;;;;;;;13.80;3.28;;;14.80;99.90;;;;;;5040209;28;20079;-76
2022/05/22 07:13:32;;;;;;;11.98;3.25;;;15.00;99.90;;;;;;5057290;28;20540;-77
2022/05/22 07:16:03;;;;;;;8.60;2.50;;;15.00;99.90;;;;;;5057298;28;20029;-76
2022/05/22 07:18:29;;;;;;;7.47;2.33;;;15.10;99.90;;;;;;5057441;28;20025;-76
2022/05/22 07:20:55;;;;;;;10.65;2.78;;;15.20;99.90;;;;;;5039349;28;20032;-77
2022/05/22 07:23:20;;;;;;;9.15;3.17;;;15.20;99.90;;;;;;5039725;28;20036;-76
2022/05/22 07:25:46;;;;;;;8.98;2.55;;;15.40;99.90;;;;;;5057148;28;20394;-76
2022/05/22 07:28:12;;;;;;;13.40;3.20;;;15.20;99.90;;;;;;5039263;28;20032;-76
2022/05/22 07:30:37;;;;;;;14.13;2.97;;;15.20;99.90;;;;;;5057541;28;20032;-76
2022/05/22 07:33:03;;;;;;;10.10;2.50;;;15.40;99.90;;;;;;5056857;28;20025;-76
2022/05/22 07:35:28;;;;;;;10.23;2.55;;;15.50;99.90;;;;;;5051960;28;20028;-76
2022/05/22 07:37:54;;;;;;;9.63;2.53;;;15.70;99.90;;;;;;5052991;28;20021;-76
2022/05/22 07:40:20;;;;;;;12.15;2.90;;;15.80;99.90;;;;;;5038801;28;20502;-76
2022/05/22 07:42:46;;;;;;;9.50;3.17;;;15.80;99.90;;;;;;5039337;28;20036;-77
2022/05/22 07:45:15;;;;;;;9.43;3.15;;;16.00;99.90;;;;;;5056971;28;20463;-76
2022/05/22 07:47:41;;;;;;;10.05;2.70;;;16.10;99.90;;;;;;5039189;28;20027;-76
2022/05/22 07:50:16;;;;;;;6.53;3.13;;;16.20;99.90;;;;;;5056137;28;20064;-76
2022/05/22 07:52:42;;;;;;;8.25;2.88;;;16.20;99.90;;;;;;5059469;28;20419;-76
2022/05/22 07:55:15;;;;;;;12.95;2.95;;;16.40;99.90;;;;;;5059056;28;20145;-76
2022/05/22 07:57:42;;;;;;;9.25;2.20;;;16.20;99.90;;;;;;5038948;28;20021;-76
2022/05/22 08:00:12;;;;;;;4.95;2.00;;;16.10;99.90;;;;;;5040043;28;20032;-76
2022/05/22 08:02:37;;;;;;;8.30;2.45;;;16.00;99.90;;;;;;5058047;28;20105;-76
2022/05/22 08:05:05;;;;;;;10.98;2.80;;;15.90;99.90;;;;;;5059732;28;20052;-75
2022/05/22 08:07:31;;;;;;;8.98;2.03;;;15.80;99.90;;;;;;5059393;28;20025;-75
2022/05/22 08:09:57;;;;;;;7.53;1.65;;;15.90;99.90;;;;;;5067958;28;20013;-75
2022/05/22 08:12:23;;;;;;;5.78;1.73;;;15.90;99.90;;;;;;5062747;28;20025;-76
2022/05/22 08:14:49;;;;;;;6.70;1.67;;;16.10;99.90;;;;;;5061361;28;20035;-77
2022/05/22 08:17:15;;;;;;;11.70;1.60;;;16.30;99.90;;;;;;5061317;28;20033;-77
2022/05/22 08:19:41;;;;;;;5.95;1.15;;;16.40;99.90;;;;;;5061208;28;20021;-77
2022/05/22 08:22:09;;;;;;;4.57;1.52;;;16.50;99.90;;;;;;5043073;28;20441;-76
2022/05/22 08:24:35;;;;;;;4.43;1.23;;;16.40;99.90;;;;;;5061751;28;20021;-76
2022/05/22 08:27:00;;;;;;;4.53;1.30;;;16.30;99.90;;;;;;5061083;28;20036;-76
2022/05/22 08:29:26;;;;;;;4.18;1.65;;;16.20;99.90;;;;;;5061196;28;20500;-77
2022/05/22 08:31:51;;;;;;;4.07;1.48;;;16.30;99.90;;;;;;5041933;28;20037;-76
2022/05/22 08:34:17;;;;;;;5.18;1.10;;;16.50;99.90;;;;;;5055031;28;20029;-77
2022/05/22 08:36:43;;;;;;;4.05;1.02;;;16.60;99.90;;;;;;5061820;28;20027;-77
2022/05/22 08:39:08;;;;;;;5.88;1.20;;;16.50;99.90;;;;;;5061349;28;20029;-77
2022/05/22 08:41:50;;;;;;;3.78;1.10;;;16.50;99.90;;;;;;5060915;28;20029;-77
2022/05/22 08:44:27;;;;;;;4.78;1.33;;;16.40;99.90;;;;;;5061404;28;20021;-77
2022/05/22 08:47:29;;;;;;;5.65;1.35;;;16.50;99.90;;;;;;5044887;28;20017;-77
2022/05/22 08:50:03;;;;;;;4.80;1.08;;;16.50;99.90;;;;;;5041278;28;20047;-78
2022/05/22 08:52:51;;;;;;;8.70;1.67;;;16.40;99.90;;;;;;5060625;28;20020;-77
2022/05/22 08:58:56;;;;;;;5.20;1.33;;;16.60;99.90;;;;;;5063199;28;20029;-76
2022/05/22 09:01:09;;;;;;;4.95;1.38;;;16.80;99.90;;;;;;5077125;28;20122;-77
2022/05/22 09:03:51;;;;;;;2.05;1.17;;;17.00;99.90;;;;;;5067556;28;20043;-78
2022/05/22 09:06:23;;;;;;;3.17;1.25;;;17.10;99.90;;;;;;5068153;28;20025;-77
2022/05/22 09:08:50;;;;;;;3.63;1.63;;;17.30;99.90;;;;;;5049117;28;20030;-77
2022/05/22 09:11:55;;;;;;;3.38;0.90;;;17.60;99.90;;;;;;5048064;28;20025;-77
2022/05/22 09:14:41;;;;;;;4.05;1.40;;;17.80;99.90;;;;;;5034816;28;20041;-77
2022/05/22 09:17:37;;;;;;;4.30;1.50;;;17.90;99.90;;;;;;5043765;28;20012;-77
2022/05/22 09:20:24;;;;;;;6.38;1.70;;;17.70;99.90;;;;;;5039730;28;20394;-77
2022/05/22 09:23:03;;;;;;;5.07;1.17;;;17.80;99.90;;;;;;5059359;28;20071;-76
2022/05/22 09:25:54;;;;;;;4.10;1.42;;;17.90;99.90;;;;;;5060918;28;20099;-76
2022/05/22 09:31:13;;;;;;;5.10;1.60;;;18.10;99.90;;;;;;5032012;28;19943;-69
2022/05/22 09:34:16;;;;;;;4.15;1.52;;;18.20;99.90;;;;;;5025470;28;20091;-70
2022/05/22 09:37:16;;;;;;;6.55;1.45;;;18.20;99.90;;;;;;5028850;28;20029;-69
2022/05/22 09:40:01;;;;;;;8.55;1.63;;;18.40;99.90;;;;;;5014964;28;20041;-70
2022/05/22 09:42:57;;;;;;;5.03;1.20;;;18.20;99.90;;;;;;5016871;28;20363;-69
2022/05/22 09:45:41;;;;;;;5.03;1.33;;;18.00;99.90;;;;;;5003921;28;20619;-70
2022/05/22 09:48:37;;;;;;;5.38;1.58;;;17.80;99.90;;;;;;4996824;28;20035;-69
2022/05/22 09:51:20;;;;;;;7.00;2.63;;;17.50;99.90;;;;;;4999000;28;20037;-69
2022/05/22 09:54:07;;;;;;;5.65;1.52;;;17.50;99.90;;;;;;4998869;28;20026;-70
2022/05/22 09:57:17;;;;;;;7.47;1.95;;;17.60;99.90;;;;;;5001822;28;20495;-71
2022/05/22 10:00:04;;;;;;;7.13;3.60;;;17.60;99.90;;;;;;5018368;28;20095;-70
2022/05/22 10:02:54;;;;;;;7.43;3.75;;;17.70;99.90;;;;;;5016502;28;20062;-71
2022/05/22 10:05:38;;;;;;;7.30;2.07;;;18.00;99.90;;;;;;5015757;28;20026;-69
2022/05/22 10:08:15;;;;;;;7.68;2.03;;;18.10;99.90;;;;;;5012466;28;20030;-70
2022/05/22 10:11:04;;;;;;;3.28;1.83;;;18.30;99.90;;;;;;5011407;28;20030;-69
2022/05/22 10:13:48;;;;;;;4.53;1.90;;;18.60;99.90;;;;;;4996617;28;20077;-70
2022/05/22 10:16:36;;;;;;;4.07;1.40;;;18.70;99.90;;;;;;4978715;28;20125;-71
2022/05/22 10:19:10;;;;;;;4.60;1.70;;;18.60;99.90;;;;;;5010378;28;20029;-70
2022/05/22 10:21:59;;;;;;;4.57;1.45;;;18.50;99.90;;;;;;5014106;28;20081;-70
2022/05/22 10:25:03;;;;;;;5.05;2.05;;;18.20;99.90;;;;;;5011614;28;20030;-70
2022/05/22 10:27:52;;;;;;;5.97;1.70;;;18.40;99.90;;;;;;5000298;28;20034;-71
2022/05/22 10:30:51;;;;;;;2.92;1.90;;;18.60;99.90;;;;;;4999519;28;20030;-71
2022/05/22 10:33:46;;;;;;;4.90;1.40;;;18.80;99.90;;;;;;4994329;28;20092;-70
2022/05/22 10:36:15;;;;;;;4.85;1.88;;;18.90;99.90;;;;;;4999722;28;20034;-71
2022/05/22 10:39:09;;;;;;;4.13;2.08;;;18.80;99.90;;;;;;4996592;28;20019;-71
2022/05/22 10:44:55;;;;;;;3.25;1.60;;;19.00;99.90;;;;;;5015561;28;20033;-69
2022/05/22 10:47:29;;;;;;;4.90;1.83;;;18.90;99.90;;;;;;5014964;28;20044;-70
2022/05/22 10:49:55;;;;;;;4.93;1.95;;;18.80;99.90;;;;;;5014507;28;20106;-69
2022/05/22 10:52:33;;;;;;;4.03;1.77;;;18.70;99.90;;;;;;5014968;28;20031;-68
2022/05/22 10:54:59;;;;;;;6.30;1.48;;;18.70;99.90;;;;;;5013518;28;20113;-70
2022/05/22 10:57:30;;;;;;;3.83;1.10;;;18.80;99.90;;;;;;5014370;28;20076;-70
2022/05/22 10:59:56;;;;;;;3.22;1.95;;;19.10;99.90;;;;;;5003786;28;20021;-71
2022/05/22 11:02:23;;;;;;;5.07;1.70;;;19.30;99.90;;;;;;5014211;28;20104;-69
2022/05/22 11:04:51;;;;;;;6.28;2.08;;;19.40;99.90;;;;;;5014647;28;20525;-69
2022/05/22 11:07:45;;;;;;;4.05;2.00;;;19.30;99.90;;;;;;5010729;28;20032;-69
2022/05/22 11:10:33;;;;;;;4.18;2.40;;;19.30;99.90;;;;;;5011438;28;20442;-71
2022/05/22 11:13:11;;;;;;;6.38;2.08;;;19.30;99.90;;;;;;5007271;28;20368;-71
2022/05/22 11:15:39;;;;;;;5.78;2.10;;;19.50;99.90;;;;;;5014772;28;20038;-69
2022/05/22 11:18:11;;;;;;;5.63;1.90;;;19.50;99.90;;;;;;5014325;28;20399;-69
2022/05/22 11:20:45;;;;;;;6.00;2.72;;;19.70;99.90;;;;;;5014536;28;20104;-69
2022/05/22 11:23:43;;;;;;;6.57;3.30;;;19.90;99.90;;;;;;5015046;28;20060;-68
2022/05/22 11:26:34;;;;;;;4.57;1.92;;;20.10;99.90;;;;;;5014403;28;20018;-69
2022/05/22 11:29:27;;;;;;;6.40;1.77;;;19.60;99.90;;;;;;5014873;28;20120;-69
2022/05/22 11:32:04;;;;;;;5.93;2.00;;;19.50;99.90;;;;;;5014189;28;20033;-69
2022/05/22 11:34:53;;;;;;;6.68;2.72;;;19.50;99.90;;;;;;5012148;28;20053;-68
2022/05/22 11:37:27;;;;;;;5.53;1.73;;;19.40;99.90;;;;;;5013855;28;20022;-69
2022/05/22 11:40:13;;;;;;;10.82;1.70;;;19.30;99.90;;;;;;5017233;28;20029;-69
2022/05/22 11:42:39;;;;;;;2.80;1.40;;;19.20;99.90;;;;;;5001099;28;20026;-69
2022/05/22 11:45:16;;;;;;;3.15;1.65;;;19.40;99.90;;;;;;4999823;28;20025;-68
2022/05/22 11:48:00;;;;;;;5.38;1.63;;;19.60;99.90;;;;;;5014574;28;20034;-68
2022/05/22 11:50:54;;;;;;;4.97;1.95;;;19.80;99.90;;;;;;5013863;28;20034;-69
2022/05/22 11:53:32;;;;;;;6.72;2.33;;;20.10;99.90;;;;;;5014001;28;20021;-68
2022/05/22 11:56:24;;;;;;;8.30;2.30;;;20.20;99.90;;;;;;5014105;28;20025;-69
2022/05/22 11:59:15;;;;;;;4.18;2.10;;;20.20;99.90;;;;;;4997922;28;20077;-70
2022/05/22 12:02:02;;;;;;;5.35;2.10;;;20.10;99.90;;;;;;5012575;28;20033;-69
2022/05/22 12:04:56;;;;;;;5.55;2.15;;;20.00;99.90;;;;;;5011821;28;20026;-69
2022/05/22 12:07:24;;;;;;;4.90;1.60;;;19.90;99.90;;;;;;4977105;28;20121;-69
2022/05/22 12:10:09;;;;;;;4.35;2.05;;;19.90;99.90;;;;;;4994315;28;20042;-68
2022/05/22 12:12:49;;;;;;;4.57;1.60;;;19.90;99.90;;;;;;4994462;28;20033;-69
2022/05/22 12:15:37;;;;;;;4.57;1.70;;;20.10;99.90;;;;;;4996539;28;20027;-70
2022/05/22 12:18:15;;;;;;;9.05;2.10;;;20.40;99.90;;;;;;4981425;28;20033;-70
2022/05/22 12:21:00;;;;;;;7.13;2.38;;;20.40;99.90;;;;;;5003510;28;20033;-71
2022/05/22 12:23:29;;;;;;;3.17;2.13;;;20.20;99.90;;;;;;5013934;28;20100;-71
2022/05/22 12:26:00;;;;;;;4.55;2.17;;;19.90;99.90;;;;;;5014280;28;20057;-69
2022/05/22 12:28:38;;;;;;;;;;;19.80;99.90;;;;;;5013471;28;20037;-71
2022/05/22 12:31:22;;;;;;;5.07;1.92;;;19.80;99.90;;;;;;5007063;28;20367;-70
2022/05/22 12:33:49;;;;;;;4.72;1.65;;;19.80;99.90;;;;;;4993944;28;20448;-70
2022/05/22 12:36:22;;;;;;;5.20;1.77;;;19.90;99.90;;;;;;4994212;28;20048;-70
2022/05/22 12:39:00;;;;;;;3.72;2.10;;;20.00;99.90;;;;;;4993375;28;20439;-70
2022/05/22 12:41:37;;;;;;;4.03;1.77;;;20.20;99.90;;;;;;4993752;28;20472;-70
2022/05/22 12:44:05;;;;;;;4.32;2.03;;;20.30;99.90;;;;;;5008534;28;20037;-70
2022/05/22 12:46:32;;;;;;;3.63;1.85;;;20.30;99.90;;;;;;5001312;28;20030;-70
2022/05/22 12:49:23;;;;;;;5.32;1.30;;;20.30;99.90;;;;;;5012736;28;20040;-70
2022/05/22 12:52:13;;;;;;;3.87;1.73;;;20.10;99.90;;;;;;5012391;28;20436;-70
2022/05/22 12:54:39;;;;;;;5.45;1.52;;;19.90;99.90;;;;;;5010679;28;20054;-69
2022/05/22 12:57:15;;;;;;;5.35;1.33;;;19.80;98.80;;;;;;5020422;28;20045;-70
2022/05/22 12:59:52;;;;;;;6.20;1.48;;;19.80;99.50;;;;;;5016911;28;20037;-70
2022/05/22 13:02:35;;;;;;;6.45;1.98;;;19.80;99.90;;;;;;5014113;28;20097;-70
2022/05/22 13:05:04;;;;;;;4.13;1.77;;;20.00;99.90;;;;;;5014531;28;20101;-70
2022/05/22 13:07:33;;;;;;;3.70;1.50;;;20.20;99.90;;;;;;5015758;28;20022;-70
2022/05/22 13:10:10;;;;;;;6.10;1.60;;;20.40;99.90;;;;;;5015514;28;20014;-70
2022/05/22 13:12:36;;;;;;;2.88;1.35;;;20.60;99.90;;;;;;5013671;28;20052;-70
2022/05/22 13:15:14;;;;;;;4.75;1.80;;;20.90;99.90;;;;;;5016210;28;20018;-70
2022/05/22 13:17:50;;;;;;;6.53;1.63;;;21.10;99.90;;;;;;5016221;28;20014;-70
2022/05/22 13:20:34;;;;;;;3.45;1.17;;;21.10;99.90;;;;;;5015885;28;20029;-69
2022/05/22 13:23:22;;;;;;;5.80;1.15;;;21.00;99.90;;;;;;5016598;28;20527;-71
2022/05/22 13:25:50;;;;;;;8.40;1.70;;;20.80;99.90;;;;;;5029258;28;20436;-70
2022/05/22 13:28:50;;;;;;;4.10;1.38;;;20.60;99.90;;;;;;5016042;28;20032;-70
2022/05/22 13:31:27;;;;;;;10.43;1.80;;;20.40;99.90;;;;;;5013830;28;20109;-70